Saronic Champion — A8XF5 — position and weather

sailwx.info

Track history (hours):
 
Tides and Currents Weather Stations Pressure Air Temp Water Temp Dewpoint Dewpoint Depression Visibility Wind Speed Wind Dir Waves Ship Positions

Saronic Champion

Last reported at 2016-Aug-16 19:24 UTC. Time now 2016-Aug-27 01:10 UTC.
Position N 36°51' E 123°41'.
Warning: this ship's position is 10 days out of date.

Length 229 m; draft 12 m.

Type: Cargo ship. MMSI: 636014887.

Date/timePositionNaut miles runAvg speedWind from/ knotsBaromVisibWave heightAir tempDewpointWater temp
2016-Aug-16 19:24N 36°51' E 123°41'1512.5
2016-Aug-16 18:10N 37°05' E 123°36'2112.7
2016-Aug-16 16:31N 37°24' E 123°23'1313.1
2016-Aug-16 15:33N 37°29' E 123°09'1414.4
2016-Aug-16 14:33N 37°37' E 122°53'1414.1
2016-Aug-16 13:33N 37°42' E 122°36'1413.5
2016-Aug-16 12:33N 37°45' E 122°20'1313.1
2016-Aug-16 11:33N 37°48' E 122°03'1312.9
2016-Aug-16 10:31N 37°51' E 121°47'1212.7
2016-Aug-16 09:33N 37°53' E 121°32'1313.0
2016-Aug-16 08:33N 37°55' E 121°15'1313.2
2016-Aug-16 07:33N 37°58' E 120°59'1313.0
2016-Aug-16 06:33N 38°01' E 120°43'32 7.9
2016-Aug-16 02:33N 37°39' E 120°14'2 1.7
2016-Aug-16 01:22N 37°39' E 120°17'0 0.0
2016-Aug-16 00:28N 37°39' E 120°17'0 0.0
2016-Aug-15 23:28N 37°39' E 120°17'0 0.0
2016-Aug-15 22:22N 37°39' E 120°17'0 0.0
2016-Aug-15 21:23N 37°39' E 120°17'0 0.0
2016-Aug-15 20:29N 37°39' E 120°17'0 0.0
2016-Aug-15 19:23N 37°39' E 120°17'0 0.1
2016-Aug-15 18:29N 37°39' E 120°17'0 0.0
2016-Aug-15 11:23N 37°39' E 120°17'0 0.0
2016-Aug-15 10:23N 37°39' E 120°17'0 0.0
2016-Aug-15 09:18N 37°39' E 120°17'0 0.1
2016-Aug-15 08:24N 37°39' E 120°17'0 0.1
2016-Aug-15 07:29N 37°39' E 120°17'0 0.0
2016-Aug-15 06:29N 37°39' E 120°17'0 0.0
2016-Aug-15 04:23N 37°39' E 120°17'0 0.0
2016-Aug-15 03:23N 37°39' E 120°17'0 0.0
2016-Aug-15 02:29N 37°39' E 120°17'0 0.0
2016-Aug-15 01:29N 37°39' E 120°17'0 0.0
2016-Aug-15 00:17N 37°39' E 120°17'0 0.1
2016-Aug-14 23:29N 37°39' E 120°17'0 0.0
2016-Aug-14 22:29N 37°39' E 120°17'0 0.0
2016-Aug-14 21:29N 37°39' E 120°17'0 0.0
2016-Aug-14 20:29N 37°39' E 120°17'0 0.0
2016-Aug-14 19:29N 37°39' E 120°17'0 0.0
2016-Aug-14 18:29N 37°39' E 120°17'0 0.0
2016-Aug-14 17:29N 37°39' E 120°17'0 0.0
2016-Aug-14 16:29N 37°39' E 120°17'0 0.0
2016-Aug-14 15:23N 37°39' E 120°17'0 0.0
2016-Aug-14 14:29N 37°39' E 120°17'0 0.0
2016-Aug-14 13:23N 37°39' E 120°17'0 0.0
2016-Aug-14 12:29N 37°39' E 120°17'0 0.0
2016-Aug-14 11:29N 37°39' E 120°17'0 0.0
2016-Aug-14 10:29N 37°39' E 120°17'0 0.0
2016-Aug-14 09:29N 37°39' E 120°17'0 0.0
2016-Aug-14 08:29N 37°39' E 120°17'0 0.0
2016-Aug-14 07:29N 37°39' E 120°17'0 0.0
2016-Aug-14 06:29N 37°39' E 120°17'0 0.0
2016-Aug-14 04:29N 37°39' E 120°17'0 0.0
2016-Aug-14 03:23N 37°39' E 120°17'0 0.0
2016-Aug-14 02:29N 37°39' E 120°17'0 0.0
2016-Aug-14 01:29N 37°39' E 120°17'2 2.2
2016-Aug-14 00:33N 37°39' E 120°14'6 6.1
2016-Aug-13 23:33N 37°44' E 120°11'0 0.1
2016-Aug-13 22:32N 37°44' E 120°11'0 0.2
2016-Aug-13 21:32N 37°44' E 120°12'0 0.1
2016-Aug-13 20:26N 37°44' E 120°12'0 0.0
2016-Aug-13 19:32N 37°44' E 120°12'0 0.1
2016-Aug-13 18:33N 37°44' E 120°11'6 6.1
2016-Aug-13 17:33N 37°50' E 120°15'1010.4
2016-Aug-13 16:33N 37°59' E 120°21'11911.5
2016-Aug-13 06:15N 37°43' E 122°50'1013.3
2016-Aug-13 05:29N 37°38' E 123°02'1213.4
2016-Aug-13 04:33N 37°32' E 123°15'  
Track history (hours):
 
Tides and Currents Weather Stations Pressure Air Temp Water Temp Dewpoint Dewpoint Depression Visibility Wind Speed Wind Dir Waves Ship Positions

Saronic Champion

Last reported at 2016-Aug-16 19:24 UTC. Time now 2016-Aug-27 01:10 UTC.
Position N 36°51' E 123°41'.
Warning: this ship's position is 10 days out of date.

Length 229 m; draft 12 m.

Type: Cargo ship. MMSI: 636014887.

Date/timePositionNaut miles runAvg speedWind from/ knotsBaromVisibWave heightAir tempDewpointWater temp
2016-Aug-16 19:24N 36°51' E 123°41'1512.5
2016-Aug-16 18:10N 37°05' E 123°36'2112.7
2016-Aug-16 16:31N 37°24' E 123°23'1313.1
2016-Aug-16 15:33N 37°29' E 123°09'1414.4
2016-Aug-16 14:33N 37°37' E 122°53'1414.1
2016-Aug-16 13:33N 37°42' E 122°36'1413.5
2016-Aug-16 12:33N 37°45' E 122°20'1313.1
2016-Aug-16 11:33N 37°48' E 122°03'1312.9
2016-Aug-16 10:31N 37°51' E 121°47'1212.7
2016-Aug-16 09:33N 37°53' E 121°32'1313.0
2016-Aug-16 08:33N 37°55' E 121°15'1313.2
2016-Aug-16 07:33N 37°58' E 120°59'1313.0
2016-Aug-16 06:33N 38°01' E 120°43'32 7.9
2016-Aug-16 02:33N 37°39' E 120°14'2 1.7
2016-Aug-16 01:22N 37°39' E 120°17'0 0.0
2016-Aug-16 00:28N 37°39' E 120°17'0 0.0
2016-Aug-15 23:28N 37°39' E 120°17'0 0.0
2016-Aug-15 22:22N 37°39' E 120°17'0 0.0
2016-Aug-15 21:23N 37°39' E 120°17'0 0.0
2016-Aug-15 20:29N 37°39' E 120°17'0 0.0
2016-Aug-15 19:23N 37°39' E 120°17'0 0.1
2016-Aug-15 18:29N 37°39' E 120°17'0 0.0
2016-Aug-15 11:23N 37°39' E 120°17'0 0.0
2016-Aug-15 10:23N 37°39' E 120°17'0 0.0
2016-Aug-15 09:18N 37°39' E 120°17'0 0.1
2016-Aug-15 08:24N 37°39' E 120°17'0 0.1
2016-Aug-15 07:29N 37°39' E 120°17'0 0.0
2016-Aug-15 06:29N 37°39' E 120°17'0 0.0
2016-Aug-15 04:23N 37°39' E 120°17'0 0.0
2016-Aug-15 03:23N 37°39' E 120°17'0 0.0
2016-Aug-15 02:29N 37°39' E 120°17'0 0.0
2016-Aug-15 01:29N 37°39' E 120°17'0 0.0
2016-Aug-15 00:17N 37°39' E 120°17'0 0.1
2016-Aug-14 23:29N 37°39' E 120°17'0 0.0
2016-Aug-14 22:29N 37°39' E 120°17'0 0.0
2016-Aug-14 21:29N 37°39' E 120°17'0 0.0
2016-Aug-14 20:29N 37°39' E 120°17'0 0.0
2016-Aug-14 19:29N 37°39' E 120°17'0 0.0
2016-Aug-14 18:29N 37°39' E 120°17'0 0.0
2016-Aug-14 17:29N 37°39' E 120°17'0 0.0
2016-Aug-14 16:29N 37°39' E 120°17'0 0.0
2016-Aug-14 15:23N 37°39' E 120°17'0 0.0
2016-Aug-14 14:29N 37°39' E 120°17'0 0.0
2016-Aug-14 13:23N 37°39' E 120°17'0 0.0
2016-Aug-14 12:29N 37°39' E 120°17'0 0.0
2016-Aug-14 11:29N 37°39' E 120°17'0 0.0
2016-Aug-14 10:29N 37°39' E 120°17'0 0.0
2016-Aug-14 09:29N 37°39' E 120°17'0 0.0
2016-Aug-14 08:29N 37°39' E 120°17'0 0.0
2016-Aug-14 07:29N 37°39' E 120°17'0 0.0
2016-Aug-14 06:29N 37°39' E 120°17'0 0.0
2016-Aug-14 04:29N 37°39' E 120°17'0 0.0
2016-Aug-14 03:23N 37°39' E 120°17'0 0.0
2016-Aug-14 02:29N 37°39' E 120°17'0 0.0
2016-Aug-14 01:29N 37°39' E 120°17'2 2.2
2016-Aug-14 00:33N 37°39' E 120°14'6 6.1
2016-Aug-13 23:33N 37°44' E 120°11'0 0.1
2016-Aug-13 22:32N 37°44' E 120°11'0 0.2
2016-Aug-13 21:32N 37°44' E 120°12'0 0.1
2016-Aug-13 20:26N 37°44' E 120°12'0 0.0
2016-Aug-13 19:32N 37°44' E 120°12'0 0.1
2016-Aug-13 18:33N 37°44' E 120°11'6 6.1
2016-Aug-13 17:33N 37°50' E 120°15'1010.4
2016-Aug-13 16:33N 37°59' E 120°21'11911.5
2016-Aug-13 06:15N 37°43' E 122°50'1013.3
2016-Aug-13 05:29N 37°38' E 123°02'1213.4
2016-Aug-13 04:33N 37°32' E 123°15'  

Dump ship's entire track history